sensor_id;sensor_type;location;lat;lon;timestamp;P1;durP1;ratioP1;P2;durP2;ratioP2
4565;SDS011;2295;51.050;14.608;2022-12-07T00:01:18;1.30;;;1.05;;
4565;SDS011;2295;51.050;14.608;2022-12-07T00:03:48;1.10;;;1.10;;
4565;SDS011;2295;51.050;14.608;2022-12-07T00:06:18;1.60;;;1.50;;
4565;SDS011;2295;51.050;14.608;2022-12-07T00:08:47;1.60;;;1.25;;
4565;SDS011;2295;51.050;14.608;2022-12-07T00:11:17;1.85;;;1.70;;
4565;SDS011;2295;51.050;14.608;2022-12-07T00:13:47;2.30;;;2.05;;
4565;SDS011;2295;51.050;14.608;2022-12-07T00:16:20;3.75;;;2.40;;
4565;SDS011;2295;51.050;14.608;2022-12-07T00:18:50;4.20;;;2.75;;
4565;SDS011;2295;51.050;14.608;2022-12-07T00:21:20;10.43;;;4.32;;
4565;SDS011;2295;51.050;14.608;2022-12-07T00:23:51;8.02;;;4.05;;
4565;SDS011;2295;51.050;14.608;2022-12-07T00:26:21;13.55;;;4.72;;
4565;SDS011;2295;51.050;14.608;2022-12-07T00:28:51;14.70;;;5.95;;
4565;SDS011;2295;51.050;14.608;2022-12-07T00:31:23;9.95;;;4.82;;
4565;SDS011;2295;51.050;14.608;2022-12-07T00:33:52;15.52;;;6.75;;
4565;SDS011;2295;51.050;14.608;2022-12-07T00:36:21;11.13;;;5.07;;
4565;SDS011;2295;51.050;14.608;2022-12-07T00:38:52;11.95;;;5.65;;
4565;SDS011;2295;51.050;14.608;2022-12-07T00:41:22;18.60;;;7.60;;
4565;SDS011;2295;51.050;14.608;2022-12-07T00:43:51;16.55;;;7.05;;
4565;SDS011;2295;51.050;14.608;2022-12-07T00:46:20;19.27;;;7.70;;
4565;SDS011;2295;51.050;14.608;2022-12-07T00:48:51;21.48;;;7.65;;
4565;SDS011;2295;51.050;14.608;2022-12-07T00:51:21;24.15;;;8.60;;
4565;SDS011;2295;51.050;14.608;2022-12-07T00:53:50;14.50;;;6.35;;
4565;SDS011;2295;51.050;14.608;2022-12-07T00:56:20;17.67;;;7.65;;
4565;SDS011;2295;51.050;14.608;2022-12-07T00:58:52;19.30;;;7.65;;
4565;SDS011;2295;51.050;14.608;2022-12-07T01:01:23;15.82;;;6.60;;
4565;SDS011;2295;51.050;14.608;2022-12-07T01:03:53;15.48;;;6.60;;
4565;SDS011;2295;51.050;14.608;2022-12-07T01:06:25;21.05;;;7.20;;
4565;SDS011;2295;51.050;14.608;2022-12-07T01:08:54;16.40;;;6.70;;
4565;SDS011;2295;51.050;14.608;2022-12-07T01:11:24;16.35;;;6.95;;
4565;SDS011;2295;51.050;14.608;2022-12-07T01:13:54;19.83;;;7.07;;
4565;SDS011;2295;51.050;14.608;2022-12-07T01:16:25;19.13;;;7.68;;
4565;SDS011;2295;51.050;14.608;2022-12-07T01:18:55;17.70;;;8.23;;
4565;SDS011;2295;51.050;14.608;2022-12-07T01:21:25;23.02;;;8.57;;
4565;SDS011;2295;51.050;14.608;2022-12-07T01:23:56;29.10;;;11.30;;
4565;SDS011;2295;51.050;14.608;2022-12-07T01:26:25;27.25;;;10.93;;
4565;SDS011;2295;51.050;14.608;2022-12-07T01:28:53;26.35;;;11.23;;
4565;SDS011;2295;51.050;14.608;2022-12-07T01:31:25;29.67;;;11.27;;
4565;SDS011;2295;51.050;14.608;2022-12-07T01:33:54;29.30;;;10.23;;
4565;SDS011;2295;51.050;14.608;2022-12-07T01:36:24;27.67;;;11.90;;
4565;SDS011;2295;51.050;14.608;2022-12-07T01:38:54;24.58;;;11.02;;
4565;SDS011;2295;51.050;14.608;2022-12-07T01:41:24;24.67;;;11.30;;
4565;SDS011;2295;51.050;14.608;2022-12-07T01:46:52;32.88;;;12.20;;
4565;SDS011;2295;51.050;14.608;2022-12-07T01:49:23;28.88;;;11.57;;
4565;SDS011;2295;51.050;14.608;2022-12-07T01:51:57;28.48;;;11.90;;
4565;SDS011;2295;51.050;14.608;2022-12-07T01:54:40;25.77;;;11.15;;
4565;SDS011;2295;51.050;14.608;2022-12-07T01:57:09;27.17;;;10.82;;
4565;SDS011;2295;51.050;14.608;2022-12-07T01:59:38;24.88;;;11.00;;
4565;SDS011;2295;51.050;14.608;2022-12-07T02:02:10;25.67;;;11.63;;
4565;SDS011;2295;51.050;14.608;2022-12-07T02:04:46;30.48;;;11.93;;
4565;SDS011;2295;51.050;14.608;2022-12-07T02:07:14;25.50;;;12.00;;
4565;SDS011;2295;51.050;14.608;2022-12-07T02:09:43;25.95;;;12.07;;
4565;SDS011;2295;51.050;14.608;2022-12-07T02:12:11;24.52;;;11.20;;
4565;SDS011;2295;51.050;14.608;2022-12-07T02:14:39;28.08;;;12.30;;
4565;SDS011;2295;51.050;14.608;2022-12-07T02:17:10;31.77;;;13.10;;
4565;SDS011;2295;51.050;14.608;2022-12-07T02:23:04;29.30;;;11.70;;
4565;SDS011;2295;51.050;14.608;2022-12-07T02:26:19;23.05;;;11.10;;
4565;SDS011;2295;51.050;14.608;2022-12-07T02:29:19;21.98;;;10.82;;
4565;SDS011;2295;51.050;14.608;2022-12-07T02:31:53;28.67;;;12.40;;
4565;SDS011;2295;51.050;14.608;2022-12-07T02:34:31;28.48;;;13.00;;
4565;SDS011;2295;51.050;14.608;2022-12-07T02:37:06;26.25;;;12.55;;
4565;SDS011;2295;51.050;14.608;2022-12-07T02:39:39;28.70;;;12.38;;
4565;SDS011;2295;51.050;14.608;2022-12-07T02:42:14;27.73;;;12.43;;
4565;SDS011;2295;51.050;14.608;2022-12-07T02:44:47;24.90;;;11.63;;
4565;SDS011;2295;51.050;14.608;2022-12-07T02:47:16;26.70;;;12.38;;
4565;SDS011;2295;51.050;14.608;2022-12-07T02:49:47;25.48;;;11.80;;
4565;SDS011;2295;51.050;14.608;2022-12-07T02:52:17;30.05;;;11.90;;
4565;SDS011;2295;51.050;14.608;2022-12-07T02:54:45;25.05;;;12.20;;
4565;SDS011;2295;51.050;14.608;2022-12-07T02:57:21;25.45;;;11.10;;
4565;SDS011;2295;51.050;14.608;2022-12-07T03:00:04;26.35;;;11.75;;
4565;SDS011;2295;51.050;14.608;2022-12-07T03:02:38;25.25;;;11.52;;
4565;SDS011;2295;51.050;14.608;2022-12-07T03:05:27;27.77;;;12.20;;
4565;SDS011;2295;51.050;14.608;2022-12-07T03:08:05;24.58;;;12.45;;
4565;SDS011;2295;51.050;14.608;2022-12-07T03:10:42;24.60;;;12.48;;
4565;SDS011;2295;51.050;14.608;2022-12-07T03:13:17;25.20;;;11.90;;
4565;SDS011;2295;51.050;14.608;2022-12-07T03:15:53;24.42;;;12.90;;
4565;SDS011;2295;51.050;14.608;2022-12-07T03:18:27;23.48;;;11.57;;
4565;SDS011;2295;51.050;14.608;2022-12-07T03:20:58;25.48;;;12.00;;
4565;SDS011;2295;51.050;14.608;2022-12-07T03:23:31;26.00;;;11.38;;
4565;SDS011;2295;51.050;14.608;2022-12-07T03:26:01;23.05;;;10.98;;
4565;SDS011;2295;51.050;14.608;2022-12-07T03:28:33;29.58;;;13.45;;
4565;SDS011;2295;51.050;14.608;2022-12-07T03:31:09;23.85;;;11.57;;
4565;SDS011;2295;51.050;14.608;2022-12-07T03:33:44;31.23;;;12.07;;
4565;SDS011;2295;51.050;14.608;2022-12-07T03:36:18;25.90;;;12.50;;
4565;SDS011;2295;51.050;14.608;2022-12-07T03:38:50;26.33;;;11.27;;
4565;SDS011;2295;51.050;14.608;2022-12-07T03:41:23;23.27;;;10.48;;
4565;SDS011;2295;51.050;14.608;2022-12-07T03:43:53;29.80;;;13.10;;
4565;SDS011;2295;51.050;14.608;2022-12-07T03:46:27;27.70;;;12.05;;
4565;SDS011;2295;51.050;14.608;2022-12-07T03:49:04;28.27;;;13.25;;
4565;SDS011;2295;51.050;14.608;2022-12-07T03:51:40;26.95;;;12.73;;
4565;SDS011;2295;51.050;14.608;2022-12-07T03:54:14;26.88;;;12.35;;
4565;SDS011;2295;51.050;14.608;2022-12-07T03:56:46;28.92;;;12.48;;
4565;SDS011;2295;51.050;14.608;2022-12-07T03:59:16;18.02;;;9.20;;
4565;SDS011;2295;51.050;14.608;2022-12-07T04:01:51;17.02;;;9.43;;
4565;SDS011;2295;51.050;14.608;2022-12-07T04:04:21;19.05;;;9.60;;
4565;SDS011;2295;51.050;14.608;2022-12-07T04:06:49;23.02;;;9.90;;
4565;SDS011;2295;51.050;14.608;2022-12-07T04:09:18;21.60;;;9.70;;
4565;SDS011;2295;51.050;14.608;2022-12-07T04:11:46;16.50;;;8.93;;
4565;SDS011;2295;51.050;14.608;2022-12-07T04:14:14;16.23;;;9.00;;
4565;SDS011;2295;51.050;14.608;2022-12-07T04:16:47;16.65;;;9.63;;
4565;SDS011;2295;51.050;14.608;2022-12-07T04:19:17;25.83;;;12.63;;
4565;SDS011;2295;51.050;14.608;2022-12-07T04:21:46;41.67;;;15.82;;
4565;SDS011;2295;51.050;14.608;2022-12-07T04:24:15;27.73;;;11.65;;
4565;SDS011;2295;51.050;14.608;2022-12-07T04:26:44;84.45;;;22.55;;
4565;SDS011;2295;51.050;14.608;2022-12-07T04:29:14;37.70;;;14.82;;
4565;SDS011;2295;51.050;14.608;2022-12-07T04:31:42;22.20;;;11.10;;
4565;SDS011;2295;51.050;14.608;2022-12-07T04:34:13;29.00;;;11.35;;
4565;SDS011;2295;51.050;14.608;2022-12-07T04:36:42;22.42;;;11.13;;
4565;SDS011;2295;51.050;14.608;2022-12-07T04:39:13;25.05;;;12.10;;
4565;SDS011;2295;51.050;14.608;2022-12-07T04:41:46;28.75;;;12.43;;
4565;SDS011;2295;51.050;14.608;2022-12-07T04:44:15;26.77;;;12.68;;
4565;SDS011;2295;51.050;14.608;2022-12-07T04:46:44;29.45;;;13.52;;
4565;SDS011;2295;51.050;14.608;2022-12-07T04:49:15;18.30;;;9.82;;
4565;SDS011;2295;51.050;14.608;2022-12-07T04:51:43;15.98;;;9.13;;
4565;SDS011;2295;51.050;14.608;2022-12-07T04:54:12;15.40;;;8.95;;
4565;SDS011;2295;51.050;14.608;2022-12-07T04:56:41;17.13;;;9.30;;
4565;SDS011;2295;51.050;14.608;2022-12-07T04:59:09;19.42;;;9.93;;
4565;SDS011;2295;51.050;14.608;2022-12-07T05:01:39;17.88;;;9.57;;
4565;SDS011;2295;51.050;14.608;2022-12-07T05:04:07;20.10;;;10.60;;
4565;SDS011;2295;51.050;14.608;2022-12-07T05:06:37;18.33;;;9.18;;
4565;SDS011;2295;51.050;14.608;2022-12-07T05:09:06;16.45;;;9.43;;
4565;SDS011;2295;51.050;14.608;2022-12-07T05:11:34;21.85;;;10.25;;
4565;SDS011;2295;51.050;14.608;2022-12-07T05:14:06;18.95;;;10.15;;
4565;SDS011;2295;51.050;14.608;2022-12-07T05:16:37;23.95;;;10.95;;
4565;SDS011;2295;51.050;14.608;2022-12-07T05:19:06;22.77;;;11.07;;
4565;SDS011;2295;51.050;14.608;2022-12-07T05:21:35;23.88;;;12.68;;
4565;SDS011;2295;51.050;14.608;2022-12-07T05:24:06;18.05;;;10.00;;
4565;SDS011;2295;51.050;14.608;2022-12-07T05:26:35;19.25;;;9.45;;
4565;SDS011;2295;51.050;14.608;2022-12-07T05:29:03;22.15;;;10.45;;
4565;SDS011;2295;51.050;14.608;2022-12-07T05:31:32;19.00;;;9.45;;
4565;SDS011;2295;51.050;14.608;2022-12-07T05:34:00;22.67;;;10.45;;
4565;SDS011;2295;51.050;14.608;2022-12-07T05:36:32;20.52;;;10.18;;
4565;SDS011;2295;51.050;14.608;2022-12-07T05:39:00;22.83;;;10.25;;
4565;SDS011;2295;51.050;14.608;2022-12-07T05:41:30;30.90;;;14.85;;
4565;SDS011;2295;51.050;14.608;2022-12-07T05:44:15;27.35;;;12.82;;
4565;SDS011;2295;51.050;14.608;2022-12-07T05:46:43;20.17;;;10.00;;
4565;SDS011;2295;51.050;14.608;2022-12-07T05:49:11;20.88;;;9.40;;
4565;SDS011;2295;51.050;14.608;2022-12-07T05:51:40;18.30;;;9.65;;
4565;SDS011;2295;51.050;14.608;2022-12-07T05:54:08;19.50;;;9.52;;
4565;SDS011;2295;51.050;14.608;2022-12-07T05:56:37;18.08;;;9.02;;
4565;SDS011;2295;51.050;14.608;2022-12-07T05:59:06;18.15;;;9.98;;
4565;SDS011;2295;51.050;14.608;2022-12-07T06:01:50;22.48;;;9.63;;
4565;SDS011;2295;51.050;14.608;2022-12-07T06:04:20;16.83;;;9.23;;
4565;SDS011;2295;51.050;14.608;2022-12-07T06:06:49;18.60;;;9.38;;
4565;SDS011;2295;51.050;14.608;2022-12-07T06:09:17;29.13;;;11.43;;
4565;SDS011;2295;51.050;14.608;2022-12-07T06:11:47;17.02;;;9.68;;
4565;SDS011;2295;51.050;14.608;2022-12-07T06:14:32;24.80;;;11.23;;
4565;SDS011;2295;51.050;14.608;2022-12-07T06:17:00;18.58;;;10.07;;
4565;SDS011;2295;51.050;14.608;2022-12-07T06:19:29;20.48;;;10.20;;
4565;SDS011;2295;51.050;14.608;2022-12-07T06:21:57;19.75;;;9.85;;
4565;SDS011;2295;51.050;14.608;2022-12-07T06:24:26;19.67;;;9.82;;
4565;SDS011;2295;51.050;14.608;2022-12-07T06:26:57;21.45;;;10.50;;
4565;SDS011;2295;51.050;14.608;2022-12-07T06:29:25;20.48;;;10.63;;
4565;SDS011;2295;51.050;14.608;2022-12-07T06:31:53;20.17;;;10.90;;
4565;SDS011;2295;51.050;14.608;2022-12-07T06:34:22;25.48;;;11.40;;
4565;SDS011;2295;51.050;14.608;2022-12-07T06:36:54;20.63;;;10.40;;
4565;SDS011;2295;51.050;14.608;2022-12-07T06:39:24;22.20;;;11.07;;
4565;SDS011;2295;51.050;14.608;2022-12-07T06:41:53;19.35;;;10.07;;
4565;SDS011;2295;51.050;14.608;2022-12-07T06:44:23;22.58;;;10.50;;
4565;SDS011;2295;51.050;14.608;2022-12-07T06:46:52;24.02;;;11.75;;
4565;SDS011;2295;51.050;14.608;2022-12-07T06:49:41;22.05;;;10.52;;
4565;SDS011;2295;51.050;14.608;2022-12-07T06:52:09;23.15;;;10.50;;
4565;SDS011;2295;51.050;14.608;2022-12-07T06:54:37;19.85;;;9.90;;
4565;SDS011;2295;51.050;14.608;2022-12-07T06:57:05;21.00;;;9.73;;
4565;SDS011;2295;51.050;14.608;2022-12-07T06:59:35;16.35;;;9.13;;
4565;SDS011;2295;51.050;14.608;2022-12-07T07:02:03;28.98;;;10.07;;
4565;SDS011;2295;51.050;14.608;2022-12-07T07:04:31;25.45;;;10.48;;
4565;SDS011;2295;51.050;14.608;2022-12-07T07:07:00;20.48;;;9.75;;
4565;SDS011;2295;51.050;14.608;2022-12-07T07:09:28;19.10;;;9.98;;
4565;SDS011;2295;51.050;14.608;2022-12-07T07:11:56;18.83;;;9.88;;
4565;SDS011;2295;51.050;14.608;2022-12-07T07:14:24;18.10;;;9.23;;
4565;SDS011;2295;51.050;14.608;2022-12-07T07:16:54;19.10;;;10.25;;
4565;SDS011;2295;51.050;14.608;2022-12-07T07:19:22;21.05;;;10.05;;
4565;SDS011;2295;51.050;14.608;2022-12-07T07:21:50;16.58;;;8.73;;
4565;SDS011;2295;51.050;14.608;2022-12-07T07:24:19;15.38;;;8.50;;
4565;SDS011;2295;51.050;14.608;2022-12-07T07:26:47;18.80;;;9.75;;
4565;SDS011;2295;51.050;14.608;2022-12-07T07:29:15;14.98;;;7.35;;
4565;SDS011;2295;51.050;14.608;2022-12-07T07:31:43;17.02;;;8.57;;
4565;SDS011;2295;51.050;14.608;2022-12-07T07:34:13;16.35;;;8.73;;
4565;SDS011;2295;51.050;14.608;2022-12-07T07:36:41;18.45;;;8.65;;
4565;SDS011;2295;51.050;14.608;2022-12-07T07:39:09;18.92;;;8.75;;
4565;SDS011;2295;51.050;14.608;2022-12-07T07:41:39;16.92;;;7.95;;
4565;SDS011;2295;51.050;14.608;2022-12-07T07:44:07;19.08;;;8.20;;
4565;SDS011;2295;51.050;14.608;2022-12-07T07:46:35;12.30;;;7.28;;
4565;SDS011;2295;51.050;14.608;2022-12-07T07:49:03;15.80;;;7.85;;
4565;SDS011;2295;51.050;14.608;2022-12-07T07:51:33;12.75;;;6.97;;
4565;SDS011;2295;51.050;14.608;2022-12-07T07:54:01;16.00;;;8.10;;
4565;SDS011;2295;51.050;14.608;2022-12-07T07:56:33;14.52;;;7.93;;
4565;SDS011;2295;51.050;14.608;2022-12-07T07:59:01;16.15;;;8.10;;
4565;SDS011;2295;51.050;14.608;2022-12-07T08:01:29;16.65;;;7.45;;
4565;SDS011;2295;51.050;14.608;2022-12-07T08:03:58;10.63;;;6.80;;
4565;SDS011;2295;51.050;14.608;2022-12-07T08:06:26;14.05;;;8.85;;
4565;SDS011;2295;51.050;14.608;2022-12-07T08:08:59;17.15;;;8.43;;
4565;SDS011;2295;51.050;14.608;2022-12-07T08:11:27;17.77;;;8.50;;
4565;SDS011;2295;51.050;14.608;2022-12-07T08:13:55;16.83;;;9.77;;
4565;SDS011;2295;51.050;14.608;2022-12-07T08:16:23;16.17;;;8.95;;
4565;SDS011;2295;51.050;14.608;2022-12-07T08:18:52;13.70;;;7.80;;
4565;SDS011;2295;51.050;14.608;2022-12-07T08:21:20;13.75;;;7.60;;
4565;SDS011;2295;51.050;14.608;2022-12-07T08:23:48;15.23;;;9.80;;
4565;SDS011;2295;51.050;14.608;2022-12-07T08:26:18;15.25;;;8.65;;
4565;SDS011;2295;51.050;14.608;2022-12-07T08:28:46;16.45;;;7.60;;
4565;SDS011;2295;51.050;14.608;2022-12-07T08:31:15;16.52;;;9.85;;
4565;SDS011;2295;51.050;14.608;2022-12-07T08:33:45;14.95;;;9.25;;
4565;SDS011;2295;51.050;14.608;2022-12-07T08:36:14;14.13;;;7.70;;
4565;SDS011;2295;51.050;14.608;2022-12-07T08:38:44;9.85;;;6.35;;
4565;SDS011;2295;51.050;14.608;2022-12-07T08:41:34;13.52;;;7.28;;
4565;SDS011;2295;51.050;14.608;2022-12-07T08:44:03;11.13;;;6.47;;
4565;SDS011;2295;51.050;14.608;2022-12-07T08:46:32;9.25;;;5.72;;
4565;SDS011;2295;51.050;14.608;2022-12-07T08:49:04;7.90;;;4.80;;
4565;SDS011;2295;51.050;14.608;2022-12-07T08:51:35;6.07;;;4.38;;
4565;SDS011;2295;51.050;14.608;2022-12-07T08:54:05;7.60;;;4.45;;
4565;SDS011;2295;51.050;14.608;2022-12-07T08:56:41;10.02;;;5.35;;
4565;SDS011;2295;51.050;14.608;2022-12-07T08:59:10;7.75;;;4.80;;
4565;SDS011;2295;51.050;14.608;2022-12-07T09:01:42;6.65;;;4.68;;
4565;SDS011;2295;51.050;14.608;2022-12-07T09:04:10;6.65;;;4.97;;
4565;SDS011;2295;51.050;14.608;2022-12-07T09:06:39;10.23;;;5.50;;
4565;SDS011;2295;51.050;14.608;2022-12-07T09:09:08;7.82;;;5.50;;
4565;SDS011;2295;51.050;14.608;2022-12-07T09:11:38;9.88;;;5.47;;
4565;SDS011;2295;51.050;14.608;2022-12-07T09:14:08;10.25;;;6.68;;
4565;SDS011;2295;51.050;14.608;2022-12-07T09:16:36;8.27;;;5.72;;
4565;SDS011;2295;51.050;14.608;2022-12-07T09:19:05;8.45;;;6.75;;
4565;SDS011;2295;51.050;14.608;2022-12-07T09:21:33;10.50;;;5.70;;
4565;SDS011;2295;51.050;14.608;2022-12-07T09:24:01;8.07;;;6.30;;
4565;SDS011;2295;51.050;14.608;2022-12-07T09:26:29;19.35;;;7.20;;
4565;SDS011;2295;51.050;14.608;2022-12-07T09:28:58;10.18;;;6.80;;
4565;SDS011;2295;51.050;14.608;2022-12-07T09:31:27;10.60;;;7.55;;
4565;SDS011;2295;51.050;14.608;2022-12-07T09:33:56;14.07;;;7.32;;
4565;SDS011;2295;51.050;14.608;2022-12-07T09:36:26;12.25;;;7.05;;
4565;SDS011;2295;51.050;14.608;2022-12-07T09:38:55;17.00;;;6.65;;
4565;SDS011;2295;51.050;14.608;2022-12-07T09:41:23;22.23;;;9.15;;
4565;SDS011;2295;51.050;14.608;2022-12-07T09:43:56;9.63;;;6.20;;
4565;SDS011;2295;51.050;14.608;2022-12-07T09:46:33;11.73;;;6.65;;
4565;SDS011;2295;51.050;14.608;2022-12-07T09:49:03;11.63;;;6.70;;
4565;SDS011;2295;51.050;14.608;2022-12-07T09:51:32;17.42;;;7.13;;
4565;SDS011;2295;51.050;14.608;2022-12-07T09:54:00;16.85;;;7.30;;
4565;SDS011;2295;51.050;14.608;2022-12-07T09:56:30;14.70;;;7.45;;
4565;SDS011;2295;51.050;14.608;2022-12-07T09:58:59;11.77;;;6.60;;
4565;SDS011;2295;51.050;14.608;2022-12-07T10:01:29;8.30;;;5.50;;
4565;SDS011;2295;51.050;14.608;2022-12-07T10:04:01;8.55;;;5.60;;
4565;SDS011;2295;51.050;14.608;2022-12-07T10:06:36;14.93;;;5.90;;
4565;SDS011;2295;51.050;14.608;2022-12-07T10:09:08;10.30;;;6.80;;
4565;SDS011;2295;51.050;14.608;2022-12-07T10:14:33;10.10;;;5.60;;
4565;SDS011;2295;51.050;14.608;2022-12-07T10:17:30;7.85;;;5.03;;
4565;SDS011;2295;51.050;14.608;2022-12-07T10:23:01;8.40;;;6.20;;
4565;SDS011;2295;51.050;14.608;2022-12-07T10:25:31;18.80;;;6.50;;
4565;SDS011;2295;51.050;14.608;2022-12-07T10:28:02;11.38;;;6.13;;
4565;SDS011;2295;51.050;14.608;2022-12-07T10:30:51;6.93;;;5.05;;
4565;SDS011;2295;51.050;14.608;2022-12-07T10:33:28;8.20;;;5.95;;
4565;SDS011;2295;51.050;14.608;2022-12-07T10:35:59;13.15;;;6.38;;
4565;SDS011;2295;51.050;14.608;2022-12-07T10:38:44;11.55;;;7.15;;
4565;SDS011;2295;51.050;14.608;2022-12-07T10:41:13;8.68;;;6.13;;
4565;SDS011;2295;51.050;14.608;2022-12-07T10:43:48;13.18;;;6.30;;
4565;SDS011;2295;51.050;14.608;2022-12-07T10:46:36;14.82;;;5.97;;
4565;SDS011;2295;51.050;14.608;2022-12-07T10:49:44;10.10;;;5.97;;
4565;SDS011;2295;51.050;14.608;2022-12-07T10:52:50;7.38;;;5.20;;
4565;SDS011;2295;51.050;14.608;2022-12-07T10:55:41;10.93;;;5.72;;
4565;SDS011;2295;51.050;14.608;2022-12-07T10:58:38;9.38;;;4.90;;
4565;SDS011;2295;51.050;14.608;2022-12-07T11:01:22;7.90;;;5.60;;
4565;SDS011;2295;51.050;14.608;2022-12-07T11:03:59;10.13;;;5.70;;
4565;SDS011;2295;51.050;14.608;2022-12-07T11:06:43;7.28;;;5.18;;
4565;SDS011;2295;51.050;14.608;2022-12-07T11:09:33;7.05;;;5.10;;
4565;SDS011;2295;51.050;14.608;2022-12-07T11:12:41;5.60;;;4.32;;
4565;SDS011;2295;51.050;14.608;2022-12-07T11:15:19;7.00;;;5.28;;
4565;SDS011;2295;51.050;14.608;2022-12-07T11:17:53;9.25;;;4.63;;
4565;SDS011;2295;51.050;14.608;2022-12-07T11:20:29;8.57;;;4.40;;
4565;SDS011;2295;51.050;14.608;2022-12-07T11:23:11;8.88;;;4.85;;
4565;SDS011;2295;51.050;14.608;2022-12-07T11:25:49;6.57;;;4.60;;
4565;SDS011;2295;51.050;14.608;2022-12-07T11:28:40;8.98;;;4.65;;
4565;SDS011;2295;51.050;14.608;2022-12-07T11:31:23;7.47;;;3.90;;
4565;SDS011;2295;51.050;14.608;2022-12-07T11:33:59;10.85;;;4.05;;
4565;SDS011;2295;51.050;14.608;2022-12-07T11:36:36;6.78;;;4.28;;
4565;SDS011;2295;51.050;14.608;2022-12-07T11:39:10;12.32;;;4.75;;
4565;SDS011;2295;51.050;14.608;2022-12-07T11:41:50;9.77;;;4.72;;
4565;SDS011;2295;51.050;14.608;2022-12-07T11:44:26;8.68;;;4.25;;
4565;SDS011;2295;51.050;14.608;2022-12-07T11:47:02;6.60;;;4.32;;
4565;SDS011;2295;51.050;14.608;2022-12-07T11:49:39;9.50;;;4.38;;
4565;SDS011;2295;51.050;14.608;2022-12-07T11:52:13;4.00;;;3.60;;
4565;SDS011;2295;51.050;14.608;2022-12-07T11:54:48;8.68;;;4.25;;
4565;SDS011;2295;51.050;14.608;2022-12-07T11:57:23;8.10;;;4.47;;
4565;SDS011;2295;51.050;14.608;2022-12-07T11:59:56;9.60;;;3.70;;
4565;SDS011;2295;51.050;14.608;2022-12-07T12:02:32;6.50;;;3.80;;
4565;SDS011;2295;51.050;14.608;2022-12-07T12:05:05;7.45;;;4.50;;
4565;SDS011;2295;51.050;14.608;2022-12-07T12:07:42;7.70;;;4.80;;
4565;SDS011;2295;51.050;14.608;2022-12-07T12:10:36;8.13;;;4.38;;
4565;SDS011;2295;51.050;14.608;2022-12-07T12:13:18;7.50;;;4.75;;
4565;SDS011;2295;51.050;14.608;2022-12-07T12:16:35;5.38;;;3.80;;
4565;SDS011;2295;51.050;14.608;2022-12-07T12:19:30;5.03;;;4.25;;
4565;SDS011;2295;51.050;14.608;2022-12-07T12:22:04;7.25;;;4.03;;
4565;SDS011;2295;51.050;14.608;2022-12-07T12:24:39;9.93;;;4.80;;
4565;SDS011;2295;51.050;14.608;2022-12-07T12:27:09;7.55;;;4.63;;
4565;SDS011;2295;51.050;14.608;2022-12-07T12:29:50;7.43;;;4.28;;
4565;SDS011;2295;51.050;14.608;2022-12-07T12:32:22;7.47;;;4.30;;
4565;SDS011;2295;51.050;14.608;2022-12-07T12:35:00;5.72;;;3.30;;
4565;SDS011;2295;51.050;14.608;2022-12-07T12:37:41;9.25;;;4.40;;
4565;SDS011;2295;51.050;14.608;2022-12-07T12:52:46;9.00;;;5.40;;
4565;SDS011;2295;51.050;14.608;2022-12-07T12:55:21;11.60;;;5.43;;
4565;SDS011;2295;51.050;14.608;2022-12-07T12:58:29;9.63;;;5.60;;
4565;SDS011;2295;51.050;14.608;2022-12-07T13:13:34;6.60;;;5.32;;
4565;SDS011;2295;51.050;14.608;2022-12-07T13:22:34;7.25;;;4.63;;
4565;SDS011;2295;51.050;14.608;2022-12-07T13:25:12;4.32;;;3.78;;
4565;SDS011;2295;51.050;14.608;2022-12-07T13:27:50;3.60;;;3.30;;
4565;SDS011;2295;51.050;14.608;2022-12-07T13:30:23;2.50;;;2.30;;
4565;SDS011;2295;51.050;14.608;2022-12-07T13:32:52;1.52;;;1.42;;
4565;SDS011;2295;51.050;14.608;2022-12-07T13:35:28;1.48;;;1.38;;
4565;SDS011;2295;51.050;14.608;2022-12-07T13:37:58;2.38;;;1.20;;
4565;SDS011;2295;51.050;14.608;2022-12-07T13:40:30;2.13;;;1.92;;
4565;SDS011;2295;51.050;14.608;2022-12-07T13:42:59;2.25;;;2.05;;
4565;SDS011;2295;51.050;14.608;2022-12-07T13:45:29;2.28;;;2.00;;
4565;SDS011;2295;51.050;14.608;2022-12-07T13:48:20;2.72;;;2.53;;
4565;SDS011;2295;51.050;14.608;2022-12-07T13:50:55;4.82;;;3.90;;
4565;SDS011;2295;51.050;14.608;2022-12-07T13:53:24;3.53;;;2.85;;
4565;SDS011;2295;51.050;14.608;2022-12-07T13:55:58;4.75;;;3.95;;
4565;SDS011;2295;51.050;14.608;2022-12-07T13:58:29;13.90;;;7.78;;
4565;SDS011;2295;51.050;14.608;2022-12-07T14:01:01;12.68;;;6.47;;
4565;SDS011;2295;51.050;14.608;2022-12-07T14:03:31;4.78;;;3.90;;
4565;SDS011;2295;51.050;14.608;2022-12-07T14:06:11;5.18;;;3.45;;
4565;SDS011;2295;51.050;14.608;2022-12-07T14:08:46;6.95;;;4.13;;
4565;SDS011;2295;51.050;14.608;2022-12-07T14:11:27;3.58;;;3.20;;
4565;SDS011;2295;51.050;14.608;2022-12-07T14:13:57;4.03;;;3.63;;
4565;SDS011;2295;51.050;14.608;2022-12-07T14:16:28;4.63;;;3.88;;
4565;SDS011;2295;51.050;14.608;2022-12-07T14:18:58;4.72;;;4.30;;
4565;SDS011;2295;51.050;14.608;2022-12-07T14:21:28;24.65;;;12.30;;
4565;SDS011;2295;51.050;14.608;2022-12-07T14:24:11;5.55;;;4.55;;
4565;SDS011;2295;51.050;14.608;2022-12-07T14:26:45;7.50;;;5.63;;
4565;SDS011;2295;51.050;14.608;2022-12-07T14:29:18;9.98;;;5.93;;
4565;SDS011;2295;51.050;14.608;2022-12-07T14:31:48;6.60;;;5.90;;
4565;SDS011;2295;51.050;14.608;2022-12-07T14:34:16;8.40;;;6.28;;
4565;SDS011;2295;51.050;14.608;2022-12-07T14:36:47;47.80;;;18.17;;
4565;SDS011;2295;51.050;14.608;2022-12-07T14:39:16;13.52;;;7.40;;
4565;SDS011;2295;51.050;14.608;2022-12-07T14:41:46;9.45;;;6.75;;
4565;SDS011;2295;51.050;14.608;2022-12-07T14:44:21;11.20;;;6.22;;
4565;SDS011;2295;51.050;14.608;2022-12-07T14:46:57;6.40;;;5.47;;
4565;SDS011;2295;51.050;14.608;2022-12-07T14:49:45;13.48;;;8.07;;
4565;SDS011;2295;51.050;14.608;2022-12-07T14:52:15;10.88;;;7.88;;
4565;SDS011;2295;51.050;14.608;2022-12-07T14:55:08;9.40;;;6.40;;
4565;SDS011;2295;51.050;14.608;2022-12-07T14:57:43;16.25;;;8.15;;
4565;SDS011;2295;51.050;14.608;2022-12-07T15:00:13;15.88;;;9.35;;
4565;SDS011;2295;51.050;14.608;2022-12-07T15:02:46;14.77;;;9.13;;
4565;SDS011;2295;51.050;14.608;2022-12-07T15:05:21;84.63;;;54.03;;
4565;SDS011;2295;51.050;14.608;2022-12-07T15:08:00;41.33;;;24.35;;
4565;SDS011;2295;51.050;14.608;2022-12-07T15:10:29;10.00;;;6.55;;
4565;SDS011;2295;51.050;14.608;2022-12-07T15:13:03;13.20;;;8.70;;
4565;SDS011;2295;51.050;14.608;2022-12-07T15:15:45;24.25;;;16.88;;
4565;SDS011;2295;51.050;14.608;2022-12-07T15:18:14;17.83;;;6.63;;
4565;SDS011;2295;51.050;14.608;2022-12-07T15:20:43;10.48;;;5.70;;
4565;SDS011;2295;51.050;14.608;2022-12-07T15:23:14;8.90;;;6.18;;
4565;SDS011;2295;51.050;14.608;2022-12-07T15:25:42;9.73;;;5.80;;
4565;SDS011;2295;51.050;14.608;2022-12-07T15:28:13;12.52;;;5.13;;
4565;SDS011;2295;51.050;14.608;2022-12-07T15:30:44;8.35;;;5.22;;
4565;SDS011;2295;51.050;14.608;2022-12-07T15:33:13;10.23;;;5.05;;
4565;SDS011;2295;51.050;14.608;2022-12-07T15:35:44;5.82;;;4.65;;
4565;SDS011;2295;51.050;14.608;2022-12-07T15:38:12;6.93;;;4.50;;
4565;SDS011;2295;51.050;14.608;2022-12-07T15:40:41;12.98;;;5.22;;
4565;SDS011;2295;51.050;14.608;2022-12-07T15:43:09;11.60;;;4.97;;
4565;SDS011;2295;51.050;14.608;2022-12-07T15:45:59;13.90;;;7.70;;
4565;SDS011;2295;51.050;14.608;2022-12-07T15:48:26;14.48;;;6.78;;
4565;SDS011;2295;51.050;14.608;2022-12-07T15:51:01;12.68;;;5.88;;
4565;SDS011;2295;51.050;14.608;2022-12-07T15:53:30;15.25;;;7.70;;
4565;SDS011;2295;51.050;14.608;2022-12-07T15:55:58;31.27;;;13.20;;
4565;SDS011;2295;51.050;14.608;2022-12-07T15:58:27;18.52;;;7.85;;
4565;SDS011;2295;51.050;14.608;2022-12-07T16:00:55;17.92;;;9.60;;
4565;SDS011;2295;51.050;14.608;2022-12-07T16:03:25;30.88;;;15.65;;
4565;SDS011;2295;51.050;14.608;2022-12-07T16:05:54;29.67;;;12.10;;